createdAt,value
2023-08-29T00:01:20.159Z,15.49
2023-08-29T00:03:47.487Z,15.54
2023-08-29T00:06:14.679Z,15.55
2023-08-29T00:08:41.925Z,15.45
2023-08-29T00:11:09.145Z,15.31
2023-08-29T00:13:36.458Z,15.30
2023-08-29T00:16:04.203Z,15.30
2023-08-29T00:18:31.518Z,15.35
2023-08-29T00:20:58.755Z,15.38
2023-08-29T00:23:25.923Z,15.33
2023-08-29T00:25:53.170Z,15.37
2023-08-29T00:28:21.054Z,15.50
2023-08-29T00:30:48.543Z,15.45
2023-08-29T00:33:15.763Z,15.39
2023-08-29T00:35:42.955Z,15.52
2023-08-29T00:38:12.360Z,15.45
2023-08-29T00:40:39.696Z,15.45
2023-08-29T00:43:07.029Z,15.52
2023-08-29T00:45:40.525Z,15.40
2023-08-29T00:48:09.836Z,15.46
2023-08-29T00:50:39.022Z,15.53
2023-08-29T00:53:07.546Z,15.61
2023-08-29T00:55:36.431Z,15.58
2023-08-29T00:58:05.289Z,15.53
2023-08-29T01:00:35.059Z,15.47
2023-08-29T01:03:04.001Z,15.44
2023-08-29T01:05:34.040Z,15.54
2023-08-29T01:08:02.856Z,15.49
2023-08-29T01:11:07.392Z,15.53
2023-08-29T01:13:55.370Z,15.49
2023-08-29T01:16:37.842Z,15.47
2023-08-29T01:19:16.317Z,15.48
2023-08-29T01:22:26.744Z,15.49
2023-08-29T01:25:53.235Z,15.48
2023-08-29T01:28:24.214Z,15.57
2023-08-29T01:30:52.302Z,15.44
2023-08-29T01:33:21.032Z,15.40
2023-08-29T01:35:48.974Z,15.35
2023-08-29T01:38:19.349Z,15.32
2023-08-29T01:40:47.003Z,15.27
2023-08-29T01:43:14.308Z,15.30
2023-08-29T01:45:41.696Z,15.31
2023-08-29T01:48:12.549Z,15.41
2023-08-29T01:50:42.792Z,15.50
2023-08-29T01:53:10.356Z,15.47
2023-08-29T01:55:40.119Z,15.41
2023-08-29T01:58:09.035Z,15.45
2023-08-29T02:00:38.109Z,15.53
2023-08-29T02:03:05.770Z,15.47
2023-08-29T02:05:33.431Z,15.37
2023-08-29T02:08:00.743Z,15.33
2023-08-29T02:10:32.053Z,15.27
2023-08-29T02:12:59.378Z,15.26
2023-08-29T02:15:26.637Z,15.21
2023-08-29T02:17:54.544Z,15.21
2023-08-29T02:20:22.038Z,15.21
2023-08-29T02:22:49.316Z,15.21
2023-08-29T02:25:16.719Z,15.15
2023-08-29T02:27:43.902Z,15.19
2023-08-29T02:30:11.832Z,15.21
2023-08-29T02:32:40.972Z,15.16
2023-08-29T02:35:09.553Z,15.20
2023-08-29T02:37:36.937Z,15.21
2023-08-29T02:40:11.420Z,15.27
2023-08-29T02:42:38.571Z,15.21
2023-08-29T02:45:06.779Z,15.18
2023-08-29T02:47:34.014Z,15.15
2023-08-29T02:50:01.230Z,15.20
2023-08-29T02:52:28.546Z,15.14
2023-08-29T02:54:55.962Z,15.18
2023-08-29T02:57:25.802Z,15.24
2023-08-29T02:59:53.229Z,15.22
2023-08-29T03:02:21.090Z,15.21
2023-08-29T03:04:48.305Z,15.19
2023-08-29T03:07:15.661Z,15.24
2023-08-29T03:09:42.847Z,15.34
2023-08-29T03:12:10.156Z,15.40
2023-08-29T03:14:37.615Z,15.40
2023-08-29T03:17:04.904Z,15.43
2023-08-29T03:19:32.296Z,15.47
2023-08-29T03:21:59.493Z,15.46
2023-08-29T03:24:27.068Z,15.40
2023-08-29T03:26:54.297Z,15.30
2023-08-29T03:29:21.813Z,15.39
2023-08-29T03:31:49.282Z,15.40
2023-08-29T03:34:16.744Z,15.29
2023-08-29T03:36:45.627Z,15.21
2023-08-29T03:39:13.136Z,15.06
2023-08-29T03:41:40.325Z,14.99
2023-08-29T03:44:09.371Z,15.02
2023-08-29T03:46:36.625Z,15.02
2023-08-29T03:49:05.013Z,14.87
2023-08-29T03:51:32.224Z,14.96
2023-08-29T03:53:59.646Z,14.99
2023-08-29T03:56:28.032Z,14.91
2023-08-29T03:58:55.289Z,14.87
2023-08-29T04:01:22.606Z,14.99
2023-08-29T04:03:53.571Z,14.92
2023-08-29T04:06:22.157Z,14.95
2023-08-29T04:08:49.418Z,14.95
2023-08-29T04:11:16.817Z,15.02
2023-08-29T04:13:44.256Z,14.97
2023-08-29T04:16:11.537Z,14.82
2023-08-29T04:18:38.932Z,14.77
2023-08-29T04:21:06.141Z,14.79
2023-08-29T04:23:33.413Z,14.75
2023-08-29T04:26:02.246Z,14.73
2023-08-29T04:28:29.731Z,14.75
2023-08-29T04:31:07.665Z,14.80
2023-08-29T04:33:34.928Z,14.66
2023-08-29T04:36:02.136Z,14.63
2023-08-29T04:38:29.981Z,14.63
2023-08-29T04:40:57.290Z,14.73
2023-08-29T04:43:24.648Z,14.84
2023-08-29T04:45:53.444Z,14.94
2023-08-29T04:48:20.697Z,14.88
2023-08-29T04:50:47.907Z,14.87
2023-08-29T04:53:16.580Z,14.89
2023-08-29T04:55:44.541Z,14.87
2023-08-29T04:58:11.894Z,14.80
2023-08-29T05:00:39.287Z,14.71
2023-08-29T05:03:06.745Z,14.82
2023-08-29T05:05:34.121Z,14.93
2023-08-29T05:08:05.474Z,14.92
2023-08-29T05:10:33.209Z,14.97
2023-08-29T05:13:00.410Z,15.03
2023-08-29T05:15:27.719Z,15.00
2023-08-29T05:17:55.120Z,15.05
2023-08-29T05:21:00.767Z,14.94
2023-08-29T05:23:48.181Z,14.95
2023-08-29T05:26:21.816Z,14.96
2023-08-29T05:28:57.667Z,14.95
2023-08-29T05:31:27.076Z,14.81
2023-08-29T05:33:54.762Z,14.82
2023-08-29T05:36:26.107Z,15.02
2023-08-29T05:39:01.807Z,15.03
2023-08-29T05:41:55.876Z,15.24
2023-08-29T05:44:23.432Z,15.12
2023-08-29T05:46:50.703Z,15.20
2023-08-29T05:49:17.947Z,15.21
2023-08-29T05:51:46.264Z,15.17
2023-08-29T05:54:13.496Z,15.30
2023-08-29T05:56:41.018Z,15.43
2023-08-29T05:59:08.383Z,15.52
2023-08-29T06:01:36.398Z,15.53
2023-08-29T06:04:05.721Z,15.56
2023-08-29T06:06:33.248Z,15.57
2023-08-29T06:09:00.832Z,15.62
2023-08-29T06:11:29.809Z,15.62
2023-08-29T06:13:57.074Z,15.65
2023-08-29T06:16:24.389Z,15.63
2023-08-29T06:18:51.660Z,15.62
2023-08-29T06:21:19.929Z,15.53
2023-08-29T06:23:47.074Z,15.61
2023-08-29T06:26:17.160Z,15.60
2023-08-29T06:28:44.546Z,15.55
2023-08-29T06:31:11.895Z,15.67
2023-08-29T06:33:41.470Z,15.88
2023-08-29T06:36:08.833Z,15.78
2023-08-29T06:38:36.131Z,15.65
2023-08-29T06:41:04.326Z,15.53
2023-08-29T06:43:31.945Z,15.67
2023-08-29T06:45:59.204Z,15.80
2023-08-29T06:48:26.855Z,15.96
2023-08-29T06:50:54.261Z,15.93
2023-08-29T06:53:21.833Z,16.01
2023-08-29T06:55:51.201Z,16.15
2023-08-29T06:58:18.518Z,16.25
2023-08-29T07:00:45.800Z,16.15
2023-08-29T07:03:13.407Z,16.00
2023-08-29T07:05:40.966Z,16.02
2023-08-29T07:08:11.960Z,16.10
2023-08-29T07:10:39.285Z,16.18
2023-08-29T07:13:06.576Z,16.18
2023-08-29T07:15:33.782Z,16.20
2023-08-29T07:18:01.651Z,16.37
2023-08-29T07:20:31.291Z,16.43
2023-08-29T07:22:58.916Z,16.61
2023-08-29T07:25:43.640Z,16.54
2023-08-29T07:28:16.841Z,16.45
2023-08-29T07:30:53.702Z,16.36
2023-08-29T07:33:21.491Z,16.32
2023-08-29T07:35:49.668Z,16.20
2023-08-29T07:38:19.436Z,16.44
2023-08-29T07:40:47.906Z,16.75
2023-08-29T07:43:16.765Z,17.01
2023-08-29T07:45:44.237Z,16.93
2023-08-29T07:48:11.897Z,17.00
2023-08-29T07:50:39.335Z,17.05
2023-08-29T07:53:06.679Z,17.12
2023-08-29T07:55:33.916Z,17.29
2023-08-29T07:58:02.820Z,17.33
2023-08-29T08:00:30.565Z,17.01
2023-08-29T08:02:57.944Z,17.34
2023-08-29T08:05:26.139Z,17.28
2023-08-29T08:07:54.185Z,17.26
2023-08-29T08:10:21.747Z,17.19
2023-08-29T08:12:49.404Z,17.36
2023-08-29T08:15:17.814Z,17.36
2023-08-29T08:17:46.247Z,17.49
2023-08-29T08:20:13.868Z,17.68
2023-08-29T08:22:42.745Z,17.79
2023-08-29T08:25:11.289Z,17.87
2023-08-29T08:27:41.447Z,17.83
2023-08-29T08:30:09.909Z,17.88
2023-08-29T08:32:37.512Z,17.71
2023-08-29T08:35:07.803Z,17.81
2023-08-29T08:37:36.994Z,18.11
2023-08-29T08:40:11.981Z,18.34
2023-08-29T08:42:42.382Z,18.44
2023-08-29T08:45:11.546Z,18.54
2023-08-29T08:47:40.059Z,18.26
2023-08-29T08:50:12.755Z,18.16
2023-08-29T08:52:43.117Z,18.28
2023-08-29T08:55:10.642Z,18.18
2023-08-29T08:57:38.872Z,18.27
2023-08-29T09:00:08.821Z,18.19
2023-08-29T09:02:38.906Z,18.51
2023-08-29T09:05:09.902Z,18.48
2023-08-29T09:07:42.858Z,18.51
2023-08-29T09:10:17.883Z,18.36
2023-08-29T09:12:56.487Z,18.10
2023-08-29T09:15:26.758Z,18.31
2023-08-29T09:17:55.731Z,18.44
2023-08-29T09:20:31.726Z,18.54
2023-08-29T09:22:59.185Z,18.53
2023-08-29T09:25:27.616Z,18.61
2023-08-29T09:27:55.373Z,18.53
2023-08-29T09:30:23.104Z,18.36
2023-08-29T09:32:52.728Z,18.11
2023-08-29T09:35:24.268Z,18.28
2023-08-29T09:37:55.194Z,18.32
2023-08-29T09:43:03.923Z,18.72
2023-08-29T09:45:33.764Z,18.86
2023-08-29T09:48:09.469Z,18.59
2023-08-29T09:50:38.448Z,18.58
2023-08-29T09:53:06.826Z,18.86
2023-08-29T09:55:50.566Z,18.70
2023-08-29T09:58:18.979Z,18.65
2023-08-29T10:00:47.184Z,18.62
2023-08-29T10:03:15.688Z,18.90
2023-08-29T10:05:46.388Z,18.82
2023-08-29T10:08:44.161Z,18.74
2023-08-29T10:11:11.461Z,18.91
2023-08-29T10:13:42.496Z,19.02
2023-08-29T10:16:10.668Z,19.01
2023-08-29T10:18:38.596Z,19.10
2023-08-29T10:21:06.513Z,19.01
2023-08-29T10:23:36.832Z,19.05
2023-08-29T10:26:07.407Z,18.88
2023-08-29T10:28:36.830Z,19.01
2023-08-29T10:31:06.978Z,19.05
2023-08-29T10:33:38.287Z,19.11
2023-08-29T10:36:10.409Z,19.02
2023-08-29T10:38:41.317Z,19.01
2023-08-29T10:41:09.056Z,19.02
2023-08-29T10:43:36.869Z,19.30
2023-08-29T10:46:24.541Z,19.34
2023-08-29T10:48:52.886Z,19.46
2023-08-29T10:51:25.976Z,19.55
2023-08-29T10:53:55.435Z,19.54
2023-08-29T10:56:29.279Z,19.49
2023-08-29T10:58:56.989Z,19.19
2023-08-29T11:01:28.299Z,19.24
2023-08-29T11:03:59.568Z,19.33
2023-08-29T11:06:51.696Z,19.37
2023-08-29T11:09:24.870Z,19.41
2023-08-29T11:12:13.955Z,19.37
2023-08-29T11:14:58.267Z,19.40
2023-08-29T11:17:27.515Z,19.36
2023-08-29T11:20:03.043Z,19.34
2023-08-29T11:22:31.064Z,19.61
2023-08-29T11:24:59.633Z,19.97
2023-08-29T11:27:32.123Z,19.82
2023-08-29T11:32:34.749Z,19.61
2023-08-29T11:35:01.966Z,19.55
2023-08-29T11:37:32.215Z,19.67
2023-08-29T11:40:03.282Z,19.75
2023-08-29T11:42:51.994Z,19.92
2023-08-29T11:45:45.718Z,20.07
2023-08-29T11:48:12.262Z,20.40
2023-08-29T11:50:42.858Z,20.54
2023-08-29T11:53:10.205Z,20.66
2023-08-29T11:55:39.410Z,20.57
2023-08-29T11:58:07.965Z,20.72
2023-08-29T12:00:35.480Z,20.50
2023-08-29T12:03:02.997Z,20.68
2023-08-29T12:05:32.161Z,20.71
2023-08-29T12:07:59.503Z,20.85
2023-08-29T12:10:28.164Z,20.87
2023-08-29T12:12:56.606Z,21.03
2023-08-29T12:15:43.721Z,20.98
2023-08-29T12:18:23.757Z,21.12
2023-08-29T12:20:52.017Z,20.71
2023-08-29T12:23:29.695Z,20.75
2023-08-29T12:25:59.427Z,21.22
2023-08-29T12:28:27.449Z,21.48
2023-08-29T12:30:56.003Z,21.49
2023-08-29T12:33:24.861Z,21.06
2023-08-29T12:35:52.660Z,21.18
2023-08-29T12:38:21.273Z,21.53
2023-08-29T12:40:48.492Z,21.61
2023-08-29T12:43:18.156Z,20.73
2023-08-29T12:45:58.361Z,20.78
2023-08-29T12:48:28.422Z,21.17
2023-08-29T12:50:55.570Z,20.92
2023-08-29T12:53:23.834Z,21.39
2023-08-29T12:55:54.931Z,22.00
2023-08-29T12:58:22.219Z,21.94
2023-08-29T13:00:49.539Z,21.64
2023-08-29T13:03:19.313Z,21.94
2023-08-29T13:05:48.137Z,21.88
2023-08-29T13:08:16.727Z,21.98
2023-08-29T13:10:44.200Z,22.34
2023-08-29T13:13:11.408Z,22.11
2023-08-29T13:15:50.498Z,22.27
2023-08-29T13:18:25.377Z,22.80
2023-08-29T13:20:53.008Z,22.14
2023-08-29T13:23:20.388Z,22.06
2023-08-29T13:25:48.996Z,22.69
2023-08-29T13:28:16.739Z,22.90
2023-08-29T13:30:44.092Z,23.34
2023-08-29T13:33:12.815Z,22.04
2023-08-29T13:35:40.442Z,22.30
2023-08-29T13:38:10.936Z,22.79
2023-08-29T13:40:42.809Z,22.74
2023-08-29T13:43:12.212Z,22.13
2023-08-29T13:45:39.534Z,22.73
2023-08-29T13:48:08.424Z,22.37
2023-08-29T13:50:38.968Z,21.88
2023-08-29T13:53:08.369Z,22.06
2023-08-29T13:55:36.202Z,21.97
2023-08-29T13:58:06.982Z,22.02
2023-08-29T14:00:35.502Z,22.32
2023-08-29T14:03:03.461Z,22.22
2023-08-29T14:05:33.004Z,22.06
2023-08-29T14:08:05.345Z,22.22
2023-08-29T14:10:36.923Z,21.91
2023-08-29T14:13:04.558Z,22.05
2023-08-29T14:15:31.889Z,22.09
2023-08-29T14:18:01.963Z,21.82
2023-08-29T14:20:29.256Z,21.77
2023-08-29T14:23:01.942Z,21.86
2023-08-29T14:25:29.572Z,21.82
2023-08-29T14:28:05.975Z,21.91
2023-08-29T14:30:33.539Z,22.28
2023-08-29T14:33:02.694Z,22.59
2023-08-29T14:35:33.929Z,22.22
2023-08-29T14:38:01.188Z,22.37
2023-08-29T14:40:39.495Z,22.62
2023-08-29T14:43:07.188Z,22.79
2023-08-29T14:45:42.038Z,22.90
2023-08-29T14:48:10.659Z,22.87
2023-08-29T14:50:37.978Z,23.13
2023-08-29T14:53:05.205Z,23.11
2023-08-29T14:55:39.892Z,23.29
2023-08-29T14:58:07.504Z,23.17
2023-08-29T15:00:35.058Z,23.33
2023-08-29T15:03:10.399Z,22.71
2023-08-29T15:05:38.112Z,22.68
2023-08-29T15:08:18.028Z,23.05
2023-08-29T15:10:46.020Z,22.24
2023-08-29T15:13:16.808Z,22.50
2023-08-29T15:15:45.669Z,22.57
2023-08-29T15:18:14.950Z,22.91
2023-08-29T15:20:44.031Z,22.80
2023-08-29T15:23:13.962Z,22.64
2023-08-29T15:25:41.714Z,22.54
2023-08-29T15:28:12.534Z,22.30
2023-08-29T15:30:40.485Z,22.36
2023-08-29T15:33:07.824Z,22.43
2023-08-29T15:35:35.141Z,22.40
2023-08-29T15:38:03.199Z,22.31
2023-08-29T15:40:30.640Z,22.73
2023-08-29T15:43:00.628Z,22.93
2023-08-29T15:45:28.405Z,23.29
2023-08-29T15:47:56.920Z,23.61
2023-08-29T15:50:29.645Z,23.05
2023-08-29T15:52:57.038Z,22.98
2023-08-29T15:55:24.315Z,22.97
2023-08-29T15:57:53.015Z,22.58
2023-08-29T16:00:20.860Z,22.91
2023-08-29T16:02:49.560Z,22.68
2023-08-29T16:05:17.089Z,22.62
2023-08-29T16:07:47.633Z,22.69
2023-08-29T16:10:15.915Z,22.96
2023-08-29T16:12:46.597Z,23.04
2023-08-29T16:15:17.691Z,23.31
2023-08-29T16:17:45.196Z,22.84
2023-08-29T16:20:14.247Z,22.78
2023-08-29T16:22:41.708Z,22.89
2023-08-29T16:25:10.160Z,23.17
2023-08-29T16:27:39.317Z,22.92
2023-08-29T16:30:08.815Z,22.56
2023-08-29T16:32:39.044Z,22.38
2023-08-29T16:35:07.676Z,22.23
2023-08-29T16:37:39.201Z,21.98
2023-08-29T16:40:11.076Z,21.84
2023-08-29T16:42:38.929Z,21.91
2023-08-29T16:45:07.931Z,21.90
2023-08-29T16:47:35.409Z,21.80
2023-08-29T16:50:03.033Z,21.91
2023-08-29T16:52:30.270Z,22.71
2023-08-29T16:54:57.707Z,23.35
2023-08-29T16:57:25.589Z,22.84
2023-08-29T17:00:00.594Z,22.44
2023-08-29T17:02:28.731Z,22.13
2023-08-29T17:04:56.378Z,22.00
2023-08-29T17:07:24.092Z,21.91
2023-08-29T17:09:52.267Z,23.02
2023-08-29T17:12:23.757Z,24.54
2023-08-29T17:14:52.731Z,24.34
2023-08-29T17:17:21.124Z,23.59
2023-08-29T17:19:48.515Z,23.24
2023-08-29T17:22:15.806Z,22.69
2023-08-29T17:25:40.150Z,22.17
2023-08-29T17:28:07.648Z,22.44
2023-08-29T17:30:35.227Z,22.07
2023-08-29T17:33:03.382Z,21.64
2023-08-29T17:35:30.648Z,21.84
2023-08-29T17:37:57.906Z,21.66
2023-08-29T17:40:25.245Z,21.25
2023-08-29T17:42:52.588Z,20.94
2023-08-29T17:45:22.688Z,20.78
2023-08-29T17:47:50.018Z,20.74
2023-08-29T17:50:17.251Z,20.57
2023-08-29T17:52:45.741Z,20.41
2023-08-29T17:55:13.158Z,20.23
2023-08-29T17:57:40.509Z,20.15
2023-08-29T18:00:08.862Z,20.13
2023-08-29T18:02:37.698Z,20.05
2023-08-29T18:05:05.706Z,19.91
2023-08-29T18:07:32.871Z,19.83
2023-08-29T18:10:15.510Z,19.74
2023-08-29T18:12:42.965Z,19.57
2023-08-29T18:15:11.773Z,19.48
2023-08-29T18:17:39.120Z,19.38
2023-08-29T18:20:07.770Z,19.31
2023-08-29T18:22:37.723Z,19.29
2023-08-29T18:25:06.413Z,19.27
2023-08-29T18:27:33.708Z,19.25
2023-08-29T18:30:00.941Z,19.27
2023-08-29T18:32:32.648Z,19.20
2023-08-29T18:34:59.999Z,19.20
2023-08-29T18:37:27.700Z,19.16
2023-08-29T18:39:56.450Z,19.04
2023-08-29T18:42:23.774Z,19.01
2023-08-29T18:44:51.088Z,18.99
2023-08-29T18:47:18.431Z,18.93
2023-08-29T18:49:45.660Z,18.92
2023-08-29T18:52:13.474Z,18.89
2023-08-29T18:54:40.678Z,18.81
2023-08-29T18:57:09.822Z,18.77
2023-08-29T18:59:37.048Z,18.70
2023-08-29T19:02:04.536Z,18.63
2023-08-29T19:04:31.773Z,18.56
2023-08-29T19:06:59.319Z,18.50
2023-08-29T19:09:27.898Z,18.49
2023-08-29T19:11:55.189Z,18.41
2023-08-29T19:14:23.750Z,18.36
2023-08-29T19:16:50.924Z,18.25
2023-08-29T19:19:18.189Z,18.28
2023-08-29T19:21:45.489Z,18.26
2023-08-29T19:24:13.190Z,18.30
2023-08-29T19:26:41.613Z,18.21
2023-08-29T19:29:09.113Z,18.16
2023-08-29T19:31:36.989Z,18.15
2023-08-29T19:34:05.470Z,18.06
2023-08-29T19:36:33.170Z,18.02
2023-08-29T19:39:12.256Z,18.00
2023-08-29T19:41:45.642Z,17.92
2023-08-29T19:44:17.047Z,17.87
2023-08-29T19:46:46.345Z,17.80
2023-08-29T19:49:14.205Z,17.76
2023-08-29T19:51:41.584Z,17.70
2023-08-29T19:54:08.901Z,17.67
2023-08-29T19:56:36.161Z,17.68
2023-08-29T19:59:04.461Z,17.63
2023-08-29T20:01:32.874Z,17.61
2023-08-29T20:04:00.107Z,17.56
2023-08-29T20:06:29.901Z,17.55
2023-08-29T20:08:57.121Z,17.52
2023-08-29T20:11:24.503Z,17.51
2023-08-29T20:13:51.776Z,17.51
2023-08-29T20:16:19.051Z,17.42
2023-08-29T20:18:46.390Z,17.39
2023-08-29T20:21:13.913Z,17.34
2023-08-29T20:23:55.460Z,17.32
2023-08-29T20:26:28.911Z,17.28
2023-08-29T20:28:56.282Z,17.24
2023-08-29T20:31:23.711Z,17.20
2023-08-29T20:33:51.114Z,17.18
2023-08-29T20:36:18.411Z,17.20
2023-08-29T20:38:45.617Z,17.17
2023-08-29T20:41:13.134Z,17.15
2023-08-29T20:43:40.380Z,17.15
2023-08-29T20:46:08.487Z,17.15
2023-08-29T20:48:35.806Z,17.15
2023-08-29T20:51:04.063Z,17.08
2023-08-29T20:53:36.265Z,17.07
2023-08-29T20:56:07.004Z,17.01
2023-08-29T20:58:35.474Z,17.00
2023-08-29T21:01:04.313Z,16.96
2023-08-29T21:03:33.813Z,16.94
2023-08-29T21:06:01.261Z,16.95
2023-08-29T21:08:28.800Z,16.95
2023-08-29T21:10:56.162Z,16.97
2023-08-29T21:13:24.914Z,16.99
2023-08-29T21:15:52.359Z,16.99
2023-08-29T21:18:20.597Z,16.98
2023-08-29T21:20:59.943Z,17.02
2023-08-29T21:23:27.928Z,17.08
2023-08-29T21:25:55.566Z,17.06
2023-08-29T21:28:26.331Z,17.03
2023-08-29T21:30:55.527Z,16.97
2023-08-29T21:33:24.010Z,16.96
2023-08-29T21:35:52.074Z,16.93
2023-08-29T21:38:21.913Z,16.87
2023-08-29T21:40:49.261Z,16.90
2023-08-29T21:43:23.193Z,16.87
2023-08-29T21:45:57.356Z,16.80
2023-08-29T21:48:26.090Z,16.82
2023-08-29T21:50:54.321Z,16.91
2023-08-29T21:53:23.030Z,16.85
2023-08-29T21:55:52.266Z,16.87
2023-08-29T21:58:20.187Z,16.89
2023-08-29T22:00:53.600Z,16.87
2023-08-29T22:03:24.915Z,16.87
2023-08-29T22:05:53.353Z,16.88
2023-08-29T22:08:22.077Z,16.90
2023-08-29T22:10:51.268Z,16.89
2023-08-29T22:13:19.409Z,16.91
2023-08-29T22:15:46.867Z,16.89
2023-08-29T22:18:14.330Z,16.94
2023-08-29T22:20:41.853Z,16.94
2023-08-29T22:23:09.159Z,16.94
2023-08-29T22:25:36.769Z,16.96
2023-08-29T22:28:08.939Z,16.97
2023-08-29T22:30:39.538Z,17.00
2023-08-29T22:33:09.338Z,16.92
2023-08-29T22:35:36.767Z,16.86
2023-08-29T22:38:05.086Z,16.82
2023-08-29T22:40:32.552Z,16.80
2023-08-29T22:43:00.178Z,16.76
2023-08-29T22:45:27.731Z,16.73
2023-08-29T22:47:55.011Z,16.72
2023-08-29T22:50:22.341Z,16.70
2023-08-29T22:52:50.617Z,16.68
2023-08-29T22:55:17.865Z,16.65
2023-08-29T22:57:45.070Z,16.56
2023-08-29T23:00:15.619Z,16.50
2023-08-29T23:02:43.343Z,16.44
2023-08-29T23:05:11.168Z,16.44
2023-08-29T23:07:38.432Z,16.49
2023-08-29T23:10:06.413Z,16.51
2023-08-29T23:12:34.155Z,16.49
2023-08-29T23:15:01.470Z,16.46
2023-08-29T23:17:29.356Z,16.45
2023-08-29T23:19:56.606Z,16.44
2023-08-29T23:22:23.917Z,16.42
2023-08-29T23:24:51.153Z,16.40
2023-08-29T23:27:18.781Z,16.34
2023-08-29T23:29:46.041Z,16.30
2023-08-29T23:32:13.286Z,16.25
2023-08-29T23:34:40.587Z,16.25
2023-08-29T23:37:08.241Z,16.28
2023-08-29T23:39:35.536Z,16.29
2023-08-29T23:42:03.091Z,16.26
2023-08-29T23:44:30.603Z,16.22
2023-08-29T23:46:57.980Z,16.19
2023-08-29T23:49:28.290Z,16.15
2023-08-29T23:51:55.745Z,16.09
2023-08-29T23:54:23.485Z,16.02
2023-08-29T23:56:50.708Z,15.97
2023-08-29T23:59:17.968Z,16.01
